Terminal Aerodrome Forecast
Issued by NWS

Home | Current Version | Previous Version | Text Only | Print | Product List | Glossary On
Versions: 1 2 3 4 5 6 7 8 9 10 11 12 13 14 15 16
000
FTUS46 KPDT 242300
TAFDLS
TAF
KDLS 242326Z 2500/2524 30020G35KT P6SM BKN150
     FM250300 30012KT P6SM BKN060
     FM251200 30010KT P6SM SCT050=

USA.gov is the U.S. government's official web portal to all federal, state and local government web resources and services.